sensor_id;sensor_type;location;lat;lon;timestamp;P1;durP1;ratioP1;P2;durP2;ratioP2
72590;SDS011;60625;51.212;5.952;2023-12-22T00:02:32;4.90;;;0.80;;
72590;SDS011;60625;51.212;5.952;2023-12-22T00:07:32;8.70;;;0.70;;
72590;SDS011;60625;51.212;5.952;2023-12-22T00:12:33;5.30;;;0.60;;
72590;SDS011;60625;51.212;5.952;2023-12-22T00:17:33;8.20;;;0.70;;
72590;SDS011;60625;51.212;5.952;2023-12-22T00:22:34;7.30;;;0.70;;
72590;SDS011;60625;51.212;5.952;2023-12-22T00:27:34;7.10;;;1.00;;
72590;SDS011;60625;51.212;5.952;2023-12-22T00:32:34;10.60;;;0.90;;
72590;SDS011;60625;51.212;5.952;2023-12-22T00:37:35;10.50;;;0.80;;
72590;SDS011;60625;51.212;5.952;2023-12-22T00:42:36;6.60;;;1.10;;
72590;SDS011;60625;51.212;5.952;2023-12-22T00:47:36;6.40;;;0.70;;
72590;SDS011;60625;51.212;5.952;2023-12-22T00:52:37;9.60;;;1.20;;
72590;SDS011;60625;51.212;5.952;2023-12-22T00:57:37;9.90;;;0.80;;
72590;SDS011;60625;51.212;5.952;2023-12-22T01:02:38;5.90;;;0.90;;
72590;SDS011;60625;51.212;5.952;2023-12-22T01:07:39;7.70;;;1.00;;
72590;SDS011;60625;51.212;5.952;2023-12-22T01:12:39;13.20;;;1.50;;
72590;SDS011;60625;51.212;5.952;2023-12-22T01:17:40;7.60;;;1.10;;
72590;SDS011;60625;51.212;5.952;2023-12-22T01:22:41;9.40;;;1.00;;
72590;SDS011;60625;51.212;5.952;2023-12-22T01:27:41;10.80;;;1.30;;
72590;SDS011;60625;51.212;5.952;2023-12-22T01:32:42;9.90;;;1.30;;
72590;SDS011;60625;51.212;5.952;2023-12-22T01:37:42;13.50;;;1.30;;
72590;SDS011;60625;51.212;5.952;2023-12-22T01:42:43;10.60;;;1.00;;
72590;SDS011;60625;51.212;5.952;2023-12-22T01:47:45;7.80;;;1.10;;
72590;SDS011;60625;51.212;5.952;2023-12-22T01:52:47;12.70;;;1.40;;
72590;SDS011;60625;51.212;5.952;2023-12-22T01:57:48;9.00;;;1.10;;
72590;SDS011;60625;51.212;5.952;2023-12-22T02:02:49;7.10;;;1.20;;
72590;SDS011;60625;51.212;5.952;2023-12-22T02:07:50;10.00;;;1.30;;
72590;SDS011;60625;51.212;5.952;2023-12-22T02:12:50;12.40;;;2.00;;
72590;SDS011;60625;51.212;5.952;2023-12-22T02:17:55;10.00;;;1.20;;
72590;SDS011;60625;51.212;5.952;2023-12-22T02:23:00;16.30;;;1.30;;
72590;SDS011;60625;51.212;5.952;2023-12-22T02:28:11;9.30;;;0.90;;
72590;SDS011;60625;51.212;5.952;2023-12-22T02:33:17;10.20;;;1.50;;
72590;SDS011;60625;51.212;5.952;2023-12-22T02:38:18;11.80;;;1.50;;
72590;SDS011;60625;51.212;5.952;2023-12-22T02:43:19;11.50;;;1.40;;
72590;SDS011;60625;51.212;5.952;2023-12-22T02:48:20;12.10;;;1.50;;
72590;SDS011;60625;51.212;5.952;2023-12-22T02:53:20;16.10;;;1.90;;
72590;SDS011;60625;51.212;5.952;2023-12-22T02:58:21;14.40;;;1.60;;
72590;SDS011;60625;51.212;5.952;2023-12-22T03:03:21;16.60;;;1.70;;
72590;SDS011;60625;51.212;5.952;2023-12-22T03:08:22;9.60;;;1.30;;
72590;SDS011;60625;51.212;5.952;2023-12-22T03:13:22;12.30;;;1.50;;
72590;SDS011;60625;51.212;5.952;2023-12-22T03:18:23;7.60;;;1.20;;
72590;SDS011;60625;51.212;5.952;2023-12-22T03:23:23;10.50;;;1.10;;
72590;SDS011;60625;51.212;5.952;2023-12-22T03:28:23;8.90;;;1.00;;
72590;SDS011;60625;51.212;5.952;2023-12-22T03:33:24;6.90;;;1.10;;
72590;SDS011;60625;51.212;5.952;2023-12-22T03:38:24;11.70;;;1.40;;
72590;SDS011;60625;51.212;5.952;2023-12-22T03:43:25;13.20;;;1.50;;
72590;SDS011;60625;51.212;5.952;2023-12-22T03:48:26;7.80;;;1.00;;
72590;SDS011;60625;51.212;5.952;2023-12-22T03:53:26;10.20;;;1.00;;
72590;SDS011;60625;51.212;5.952;2023-12-22T03:58:27;13.60;;;1.50;;
72590;SDS011;60625;51.212;5.952;2023-12-22T04:03:30;13.90;;;1.60;;
72590;SDS011;60625;51.212;5.952;2023-12-22T04:08:30;7.20;;;1.00;;
72590;SDS011;60625;51.212;5.952;2023-12-22T04:13:31;15.20;;;1.50;;
72590;SDS011;60625;51.212;5.952;2023-12-22T04:18:31;11.90;;;1.00;;
72590;SDS011;60625;51.212;5.952;2023-12-22T04:23:32;13.90;;;1.30;;
72590;SDS011;60625;51.212;5.952;2023-12-22T04:28:33;9.30;;;1.20;;
72590;SDS011;60625;51.212;5.952;2023-12-22T04:33:33;10.20;;;1.20;;
72590;SDS011;60625;51.212;5.952;2023-12-22T04:38:34;13.40;;;1.70;;
72590;SDS011;60625;51.212;5.952;2023-12-22T04:43:34;17.80;;;2.00;;
72590;SDS011;60625;51.212;5.952;2023-12-22T04:48:35;17.00;;;2.00;;
72590;SDS011;60625;51.212;5.952;2023-12-22T04:53:35;21.60;;;1.50;;
72590;SDS011;60625;51.212;5.952;2023-12-22T04:58:36;11.90;;;1.60;;
72590;SDS011;60625;51.212;5.952;2023-12-22T05:03:36;11.40;;;1.90;;
72590;SDS011;60625;51.212;5.952;2023-12-22T05:08:37;8.00;;;1.40;;
72590;SDS011;60625;51.212;5.952;2023-12-22T05:13:37;13.50;;;1.50;;
72590;SDS011;60625;51.212;5.952;2023-12-22T05:18:39;20.60;;;1.70;;
72590;SDS011;60625;51.212;5.952;2023-12-22T05:23:40;9.50;;;1.70;;
72590;SDS011;60625;51.212;5.952;2023-12-22T05:28:40;12.20;;;1.60;;
72590;SDS011;60625;51.212;5.952;2023-12-22T05:33:40;14.70;;;1.50;;
72590;SDS011;60625;51.212;5.952;2023-12-22T05:38:41;12.50;;;1.30;;
72590;SDS011;60625;51.212;5.952;2023-12-22T05:43:42;11.40;;;1.40;;
72590;SDS011;60625;51.212;5.952;2023-12-22T05:48:43;16.10;;;1.90;;
72590;SDS011;60625;51.212;5.952;2023-12-22T05:53:43;13.10;;;1.80;;
72590;SDS011;60625;51.212;5.952;2023-12-22T05:58:43;14.10;;;1.50;;
72590;SDS011;60625;51.212;5.952;2023-12-22T06:03:45;11.10;;;1.40;;
72590;SDS011;60625;51.212;5.952;2023-12-22T06:08:46;12.30;;;1.70;;
72590;SDS011;60625;51.212;5.952;2023-12-22T06:13:46;13.20;;;1.90;;
72590;SDS011;60625;51.212;5.952;2023-12-22T06:18:47;18.60;;;2.20;;
72590;SDS011;60625;51.212;5.952;2023-12-22T06:23:47;13.70;;;2.20;;
72590;SDS011;60625;51.212;5.952;2023-12-22T06:28:48;16.30;;;2.10;;
72590;SDS011;60625;51.212;5.952;2023-12-22T06:33:49;16.90;;;2.20;;
72590;SDS011;60625;51.212;5.952;2023-12-22T06:38:51;17.60;;;2.50;;
72590;SDS011;60625;51.212;5.952;2023-12-22T06:43:54;22.10;;;2.60;;
72590;SDS011;60625;51.212;5.952;2023-12-22T06:48:56;25.00;;;2.80;;
72590;SDS011;60625;51.212;5.952;2023-12-22T06:53:57;19.70;;;1.80;;
72590;SDS011;60625;51.212;5.952;2023-12-22T06:59:01;18.50;;;2.30;;
72590;SDS011;60625;51.212;5.952;2023-12-22T07:04:03;16.30;;;3.20;;
72590;SDS011;60625;51.212;5.952;2023-12-22T07:14:20;20.90;;;3.20;;
72590;SDS011;60625;51.212;5.952;2023-12-22T07:19:20;22.50;;;2.30;;
72590;SDS011;60625;51.212;5.952;2023-12-22T07:24:21;20.30;;;2.10;;
72590;SDS011;60625;51.212;5.952;2023-12-22T07:29:21;20.90;;;2.90;;
72590;SDS011;60625;51.212;5.952;2023-12-22T07:34:22;27.20;;;2.90;;
72590;SDS011;60625;51.212;5.952;2023-12-22T07:39:22;23.50;;;3.50;;
72590;SDS011;60625;51.212;5.952;2023-12-22T07:44:23;24.20;;;3.10;;
72590;SDS011;60625;51.212;5.952;2023-12-22T07:49:24;26.50;;;3.00;;
72590;SDS011;60625;51.212;5.952;2023-12-22T07:54:25;24.60;;;3.80;;
72590;SDS011;60625;51.212;5.952;2023-12-22T07:59:26;19.50;;;2.70;;
72590;SDS011;60625;51.212;5.952;2023-12-22T08:04:26;15.30;;;2.70;;
72590;SDS011;60625;51.212;5.952;2023-12-22T08:09:27;17.20;;;2.30;;
72590;SDS011;60625;51.212;5.952;2023-12-22T08:14:27;13.40;;;2.30;;
72590;SDS011;60625;51.212;5.952;2023-12-22T08:19:28;24.00;;;3.30;;
72590;SDS011;60625;51.212;5.952;2023-12-22T08:24:29;25.70;;;3.30;;
72590;SDS011;60625;51.212;5.952;2023-12-22T08:29:29;18.00;;;2.60;;
72590;SDS011;60625;51.212;5.952;2023-12-22T08:34:30;22.70;;;2.80;;
72590;SDS011;60625;51.212;5.952;2023-12-22T08:39:30;20.60;;;2.60;;
72590;SDS011;60625;51.212;5.952;2023-12-22T08:44:31;22.00;;;2.70;;
72590;SDS011;60625;51.212;5.952;2023-12-22T08:49:32;18.70;;;2.40;;
72590;SDS011;60625;51.212;5.952;2023-12-22T08:54:32;19.50;;;2.00;;
72590;SDS011;60625;51.212;5.952;2023-12-22T08:59:34;10.60;;;2.00;;
72590;SDS011;60625;51.212;5.952;2023-12-22T09:04:34;19.90;;;2.60;;
72590;SDS011;60625;51.212;5.952;2023-12-22T09:09:35;14.00;;;2.00;;
72590;SDS011;60625;51.212;5.952;2023-12-22T09:14:35;18.10;;;2.00;;
72590;SDS011;60625;51.212;5.952;2023-12-22T09:19:36;13.80;;;1.70;;
72590;SDS011;60625;51.212;5.952;2023-12-22T09:24:38;11.10;;;1.90;;
72590;SDS011;60625;51.212;5.952;2023-12-22T09:29:39;11.10;;;1.80;;
72590;SDS011;60625;51.212;5.952;2023-12-22T09:34:39;11.20;;;2.30;;
72590;SDS011;60625;51.212;5.952;2023-12-22T09:39:40;8.60;;;1.40;;
72590;SDS011;60625;51.212;5.952;2023-12-22T09:44:42;10.10;;;2.00;;
72590;SDS011;60625;51.212;5.952;2023-12-22T09:49:44;9.80;;;1.80;;
72590;SDS011;60625;51.212;5.952;2023-12-22T09:54:47;10.80;;;2.00;;
72590;SDS011;60625;51.212;5.952;2023-12-22T09:59:48;10.50;;;1.80;;
72590;SDS011;60625;51.212;5.952;2023-12-22T10:04:49;9.50;;;2.10;;
72590;SDS011;60625;51.212;5.952;2023-12-22T10:09:50;10.30;;;2.20;;
72590;SDS011;60625;51.212;5.952;2023-12-22T10:14:52;7.50;;;2.00;;
72590;SDS011;60625;51.212;5.952;2023-12-22T10:19:53;7.40;;;2.20;;
72590;SDS011;60625;51.212;5.952;2023-12-22T10:24:54;4.90;;;1.60;;
72590;SDS011;60625;51.212;5.952;2023-12-22T10:29:56;5.30;;;1.70;;
72590;SDS011;60625;51.212;5.952;2023-12-22T10:34:57;7.30;;;2.00;;
72590;SDS011;60625;51.212;5.952;2023-12-22T10:39:58;6.80;;;1.60;;
72590;SDS011;60625;51.212;5.952;2023-12-22T10:44:58;4.70;;;1.60;;
72590;SDS011;60625;51.212;5.952;2023-12-22T10:50:04;5.40;;;1.10;;
72590;SDS011;60625;51.212;5.952;2023-12-22T10:55:06;6.80;;;1.20;;
72590;SDS011;60625;51.212;5.952;2023-12-22T11:00:08;5.30;;;1.10;;
72590;SDS011;60625;51.212;5.952;2023-12-22T11:05:11;6.20;;;1.00;;
72590;SDS011;60625;51.212;5.952;2023-12-22T11:10:13;4.00;;;0.60;;
72590;SDS011;60625;51.212;5.952;2023-12-22T11:15:15;4.80;;;0.70;;
72590;SDS011;60625;51.212;5.952;2023-12-22T11:20:17;3.00;;;0.70;;
72590;SDS011;60625;51.212;5.952;2023-12-22T11:25:19;3.70;;;0.70;;
72590;SDS011;60625;51.212;5.952;2023-12-22T11:30:22;5.00;;;0.70;;
72590;SDS011;60625;51.212;5.952;2023-12-22T11:35:23;6.40;;;0.60;;
72590;SDS011;60625;51.212;5.952;2023-12-22T11:40:24;5.80;;;0.90;;
72590;SDS011;60625;51.212;5.952;2023-12-22T11:45:25;6.40;;;0.70;;
72590;SDS011;60625;51.212;5.952;2023-12-22T11:50:29;4.50;;;0.50;;
72590;SDS011;60625;51.212;5.952;2023-12-22T12:01:01;3.00;;;0.60;;
72590;SDS011;60625;51.212;5.952;2023-12-22T12:11:14;2.80;;;0.60;;
72590;SDS011;60625;51.212;5.952;2023-12-22T12:16:19;3.50;;;0.50;;
72590;SDS011;60625;51.212;5.952;2023-12-22T12:21:24;4.10;;;0.60;;
72590;SDS011;60625;51.212;5.952;2023-12-22T12:26:25;3.20;;;0.50;;
72590;SDS011;60625;51.212;5.952;2023-12-22T12:31:36;2.80;;;0.40;;
72590;SDS011;60625;51.212;5.952;2023-12-22T12:36:42;6.80;;;0.70;;
72590;SDS011;60625;51.212;5.952;2023-12-22T12:41:43;7.90;;;0.90;;
72590;SDS011;60625;51.212;5.952;2023-12-22T12:46:44;5.40;;;0.90;;
72590;SDS011;60625;51.212;5.952;2023-12-22T12:51:47;4.70;;;0.60;;
72590;SDS011;60625;51.212;5.952;2023-12-22T12:56:48;4.00;;;0.80;;
72590;SDS011;60625;51.212;5.952;2023-12-22T13:01:48;5.40;;;0.50;;
72590;SDS011;60625;51.212;5.952;2023-12-22T13:06:50;5.20;;;0.80;;
72590;SDS011;60625;51.212;5.952;2023-12-22T13:11:50;4.60;;;1.00;;
72590;SDS011;60625;51.212;5.952;2023-12-22T13:16:52;9.30;;;0.90;;
72590;SDS011;60625;51.212;5.952;2023-12-22T13:21:56;9.70;;;1.20;;
72590;SDS011;60625;51.212;5.952;2023-12-22T13:27:02;4.10;;;0.70;;
72590;SDS011;60625;51.212;5.952;2023-12-22T13:32:04;5.10;;;0.70;;
72590;SDS011;60625;51.212;5.952;2023-12-22T13:37:05;5.90;;;0.50;;
72590;SDS011;60625;51.212;5.952;2023-12-22T13:42:14;6.20;;;0.70;;
72590;SDS011;60625;51.212;5.952;2023-12-22T13:47:17;4.40;;;0.70;;
72590;SDS011;60625;51.212;5.952;2023-12-22T13:52:25;6.40;;;0.60;;
72590;SDS011;60625;51.212;5.952;2023-12-22T13:57:34;6.40;;;0.60;;
72590;SDS011;60625;51.212;5.952;2023-12-22T14:02:35;4.90;;;0.60;;
72590;SDS011;60625;51.212;5.952;2023-12-22T14:07:36;4.80;;;0.60;;
72590;SDS011;60625;51.212;5.952;2023-12-22T14:12:38;6.00;;;0.70;;
72590;SDS011;60625;51.212;5.952;2023-12-22T14:17:40;4.90;;;1.00;;
72590;SDS011;60625;51.212;5.952;2023-12-22T14:22:43;6.70;;;0.50;;
72590;SDS011;60625;51.212;5.952;2023-12-22T14:27:44;5.10;;;0.70;;
72590;SDS011;60625;51.212;5.952;2023-12-22T14:32:44;4.50;;;0.70;;
72590;SDS011;60625;51.212;5.952;2023-12-22T14:37:45;6.20;;;1.10;;
72590;SDS011;60625;51.212;5.952;2023-12-22T14:42:46;3.20;;;0.60;;
72590;SDS011;60625;51.212;5.952;2023-12-22T14:47:47;5.60;;;0.80;;
72590;SDS011;60625;51.212;5.952;2023-12-22T14:52:47;5.10;;;0.90;;
72590;SDS011;60625;51.212;5.952;2023-12-22T14:57:48;5.80;;;0.90;;
72590;SDS011;60625;51.212;5.952;2023-12-22T15:02:48;7.80;;;0.70;;
72590;SDS011;60625;51.212;5.952;2023-12-22T15:07:49;6.50;;;0.60;;
72590;SDS011;60625;51.212;5.952;2023-12-22T15:12:49;6.40;;;1.00;;
72590;SDS011;60625;51.212;5.952;2023-12-22T15:17:50;5.70;;;1.00;;
72590;SDS011;60625;51.212;5.952;2023-12-22T15:22:51;5.80;;;0.60;;
72590;SDS011;60625;51.212;5.952;2023-12-22T15:27:51;7.20;;;0.80;;
72590;SDS011;60625;51.212;5.952;2023-12-22T15:32:52;5.90;;;0.70;;
72590;SDS011;60625;51.212;5.952;2023-12-22T15:37:52;8.50;;;1.60;;
72590;SDS011;60625;51.212;5.952;2023-12-22T15:42:53;4.80;;;0.70;;
72590;SDS011;60625;51.212;5.952;2023-12-22T15:47:53;10.90;;;1.30;;
72590;SDS011;60625;51.212;5.952;2023-12-22T15:52:54;6.40;;;1.30;;
72590;SDS011;60625;51.212;5.952;2023-12-22T15:57:54;6.20;;;0.70;;
72590;SDS011;60625;51.212;5.952;2023-12-22T16:02:54;5.20;;;0.80;;
72590;SDS011;60625;51.212;5.952;2023-12-22T16:07:55;11.00;;;1.00;;
72590;SDS011;60625;51.212;5.952;2023-12-22T16:12:58;7.00;;;1.20;;
72590;SDS011;60625;51.212;5.952;2023-12-22T16:17:59;6.30;;;0.90;;
72590;SDS011;60625;51.212;5.952;2023-12-22T16:23:03;7.70;;;1.00;;
72590;SDS011;60625;51.212;5.952;2023-12-22T16:28:04;5.60;;;0.70;;
72590;SDS011;60625;51.212;5.952;2023-12-22T16:33:05;6.90;;;1.00;;
72590;SDS011;60625;51.212;5.952;2023-12-22T16:38:06;7.40;;;1.00;;
72590;SDS011;60625;51.212;5.952;2023-12-22T16:43:06;8.10;;;1.10;;
72590;SDS011;60625;51.212;5.952;2023-12-22T16:48:07;6.40;;;1.00;;
72590;SDS011;60625;51.212;5.952;2023-12-22T16:53:07;8.30;;;1.20;;
72590;SDS011;60625;51.212;5.952;2023-12-22T16:58:08;8.80;;;0.90;;
72590;SDS011;60625;51.212;5.952;2023-12-22T17:03:08;4.60;;;0.80;;
72590;SDS011;60625;51.212;5.952;2023-12-22T17:08:09;6.00;;;1.00;;
72590;SDS011;60625;51.212;5.952;2023-12-22T17:13:10;15.10;;;1.10;;
72590;SDS011;60625;51.212;5.952;2023-12-22T17:18:11;4.60;;;0.90;;
72590;SDS011;60625;51.212;5.952;2023-12-22T17:23:11;5.50;;;0.90;;
72590;SDS011;60625;51.212;5.952;2023-12-22T17:28:12;6.00;;;1.20;;
72590;SDS011;60625;51.212;5.952;2023-12-22T17:33:12;7.50;;;1.00;;
72590;SDS011;60625;51.212;5.952;2023-12-22T17:38:13;9.40;;;1.10;;
72590;SDS011;60625;51.212;5.952;2023-12-22T17:43:13;8.70;;;1.00;;
72590;SDS011;60625;51.212;5.952;2023-12-22T17:48:15;6.50;;;1.00;;
72590;SDS011;60625;51.212;5.952;2023-12-22T17:53:16;7.30;;;1.10;;
72590;SDS011;60625;51.212;5.952;2023-12-22T17:58:16;7.00;;;1.00;;
72590;SDS011;60625;51.212;5.952;2023-12-22T18:03:17;5.20;;;1.30;;
72590;SDS011;60625;51.212;5.952;2023-12-22T18:08:18;9.50;;;1.20;;
72590;SDS011;60625;51.212;5.952;2023-12-22T18:13:18;5.60;;;1.10;;
72590;SDS011;60625;51.212;5.952;2023-12-22T18:18:19;8.40;;;1.80;;
72590;SDS011;60625;51.212;5.952;2023-12-22T18:23:20;8.10;;;1.60;;
72590;SDS011;60625;51.212;5.952;2023-12-22T18:28:20;8.00;;;1.10;;
72590;SDS011;60625;51.212;5.952;2023-12-22T18:33:21;8.30;;;1.00;;
72590;SDS011;60625;51.212;5.952;2023-12-22T18:38:23;5.10;;;0.60;;
72590;SDS011;60625;51.212;5.952;2023-12-22T18:43:24;5.40;;;0.80;;
72590;SDS011;60625;51.212;5.952;2023-12-22T18:48:25;6.10;;;0.90;;
72590;SDS011;60625;51.212;5.952;2023-12-22T18:53:25;5.90;;;0.80;;
72590;SDS011;60625;51.212;5.952;2023-12-22T18:58:26;5.50;;;0.80;;
72590;SDS011;60625;51.212;5.952;2023-12-22T19:03:28;4.80;;;0.70;;
72590;SDS011;60625;51.212;5.952;2023-12-22T19:08:29;6.30;;;0.90;;
72590;SDS011;60625;51.212;5.952;2023-12-22T19:13:30;6.60;;;1.20;;
72590;SDS011;60625;51.212;5.952;2023-12-22T19:18:30;6.30;;;0.90;;
72590;SDS011;60625;51.212;5.952;2023-12-22T19:23:31;7.60;;;1.00;;
72590;SDS011;60625;51.212;5.952;2023-12-22T19:28:31;8.10;;;1.20;;
72590;SDS011;60625;51.212;5.952;2023-12-22T19:33:32;6.80;;;0.90;;
72590;SDS011;60625;51.212;5.952;2023-12-22T19:38:32;5.10;;;1.10;;
72590;SDS011;60625;51.212;5.952;2023-12-22T19:43:33;5.00;;;0.90;;
72590;SDS011;60625;51.212;5.952;2023-12-22T19:48:33;6.30;;;1.20;;
72590;SDS011;60625;51.212;5.952;2023-12-22T19:53:34;10.20;;;1.20;;
72590;SDS011;60625;51.212;5.952;2023-12-22T19:58:34;9.10;;;1.10;;
72590;SDS011;60625;51.212;5.952;2023-12-22T20:03:35;5.50;;;1.10;;
72590;SDS011;60625;51.212;5.952;2023-12-22T20:08:36;8.40;;;1.10;;
72590;SDS011;60625;51.212;5.952;2023-12-22T20:13:37;7.10;;;0.90;;
72590;SDS011;60625;51.212;5.952;2023-12-22T20:18:38;6.00;;;0.70;;
72590;SDS011;60625;51.212;5.952;2023-12-22T20:23:40;6.90;;;0.90;;
72590;SDS011;60625;51.212;5.952;2023-12-22T20:28:40;5.30;;;1.10;;
72590;SDS011;60625;51.212;5.952;2023-12-22T20:33:40;8.70;;;1.00;;
72590;SDS011;60625;51.212;5.952;2023-12-22T20:38:41;6.30;;;1.00;;
72590;SDS011;60625;51.212;5.952;2023-12-22T20:43:41;4.50;;;1.00;;
72590;SDS011;60625;51.212;5.952;2023-12-22T20:48:42;7.70;;;1.10;;
72590;SDS011;60625;51.212;5.952;2023-12-22T20:53:43;10.60;;;1.40;;
72590;SDS011;60625;51.212;5.952;2023-12-22T20:58:43;6.50;;;0.90;;
72590;SDS011;60625;51.212;5.952;2023-12-22T21:03:43;5.70;;;0.80;;
72590;SDS011;60625;51.212;5.952;2023-12-22T21:08:45;5.90;;;0.70;;
72590;SDS011;60625;51.212;5.952;2023-12-22T21:13:45;6.00;;;1.00;;
72590;SDS011;60625;51.212;5.952;2023-12-22T21:18:48;8.00;;;1.00;;
72590;SDS011;60625;51.212;5.952;2023-12-22T21:23:48;8.30;;;1.30;;
72590;SDS011;60625;51.212;5.952;2023-12-22T21:28:49;6.50;;;0.90;;
72590;SDS011;60625;51.212;5.952;2023-12-22T21:33:49;7.70;;;0.80;;
72590;SDS011;60625;51.212;5.952;2023-12-22T21:38:50;7.90;;;1.10;;
72590;SDS011;60625;51.212;5.952;2023-12-22T21:43:52;9.70;;;1.30;;
72590;SDS011;60625;51.212;5.952;2023-12-22T21:48:52;5.80;;;0.80;;
72590;SDS011;60625;51.212;5.952;2023-12-22T21:53:53;3.00;;;0.40;;
72590;SDS011;60625;51.212;5.952;2023-12-22T21:58:53;5.30;;;0.30;;
72590;SDS011;60625;51.212;5.952;2023-12-22T22:03:54;2.70;;;0.30;;
72590;SDS011;60625;51.212;5.952;2023-12-22T22:08:55;2.50;;;0.40;;
72590;SDS011;60625;51.212;5.952;2023-12-22T22:13:55;5.40;;;0.50;;
72590;SDS011;60625;51.212;5.952;2023-12-22T22:18:56;3.00;;;0.30;;
72590;SDS011;60625;51.212;5.952;2023-12-22T22:23:56;4.00;;;0.40;;
72590;SDS011;60625;51.212;5.952;2023-12-22T22:28:57;4.40;;;0.40;;
72590;SDS011;60625;51.212;5.952;2023-12-22T22:33:57;2.10;;;0.40;;
72590;SDS011;60625;51.212;5.952;2023-12-22T22:38:58;4.10;;;0.60;;
72590;SDS011;60625;51.212;5.952;2023-12-22T22:43:58;5.30;;;1.20;;
72590;SDS011;60625;51.212;5.952;2023-12-22T22:48:59;7.90;;;0.80;;
72590;SDS011;60625;51.212;5.952;2023-12-22T22:53:59;4.80;;;0.50;;
72590;SDS011;60625;51.212;5.952;2023-12-22T22:59:00;4.80;;;0.70;;
72590;SDS011;60625;51.212;5.952;2023-12-22T23:04:00;7.40;;;0.70;;
72590;SDS011;60625;51.212;5.952;2023-12-22T23:09:01;4.30;;;0.50;;
72590;SDS011;60625;51.212;5.952;2023-12-22T23:14:02;6.00;;;0.50;;
72590;SDS011;60625;51.212;5.952;2023-12-22T23:19:04;6.80;;;1.00;;
72590;SDS011;60625;51.212;5.952;2023-12-22T23:24:04;5.50;;;0.60;;
72590;SDS011;60625;51.212;5.952;2023-12-22T23:29:06;6.90;;;0.40;;
72590;SDS011;60625;51.212;5.952;2023-12-22T23:34:07;5.30;;;0.60;;
72590;SDS011;60625;51.212;5.952;2023-12-22T23:39:07;3.90;;;0.60;;
72590;SDS011;60625;51.212;5.952;2023-12-22T23:44:08;4.30;;;0.70;;
72590;SDS011;60625;51.212;5.952;2023-12-22T23:49:09;4.10;;;0.40;;
72590;SDS011;60625;51.212;5.952;2023-12-22T23:54:10;5.30;;;0.50;;
72590;SDS011;60625;51.212;5.952;2023-12-22T23:59:11;4.20;;;0.70;;
